<?xml version="1.0" encoding="UTF-8" standalone="no" ?>
<gpx xmlns="http://www.topografix.com/GPX/1/1" xmlns:xsi="http://www.w3.org/2001/XMLSchema-instance" xsi:schemaLocation="http://www.topografix.com/GPX/1/1 http://www.topografix.com/GPX/1/1/gpx.xsd" version="1.1" creator="VisuGPX - https://www.visugpx.com">
  <metadata>
    <name>StNicolasT_CouesmeVaulaurent_21.7km</name>
    <desc><![CDATA[gnerando]]></desc>
  </metadata>
  <trk>
    <name><![CDATA[StNicolasT_CouesmeVaulaurent_21.7km]]></name>
    <extensions>
      <line xmlns="http://www.topografix.com/GPX/gpx_style/0/2">
        <color>0000FF</color>
        <width>4</width>
      </line>
    </extensions>
    <trkseg>
      <trkpt lat="47.80171" lon="-2.22343">
        <ele>47.8</ele>
        <time>2023-04-25T05:55:01.000Z</time>
      </trkpt>
      <trkpt lat="47.80091" lon="-2.22369">
        <ele>44.3</ele>
        <time>2023-04-25T05:56:11.684Z</time>
      </trkpt>
      <trkpt lat="47.8008" lon="-2.22321">
        <ele>44.2</ele>
        <time>2023-04-25T05:56:44.812Z</time>
      </trkpt>
      <trkpt lat="47.80028" lon="-2.22269">
        <ele>40.7</ele>
        <time>2023-04-25T05:57:38.597Z</time>
      </trkpt>
      <trkpt lat="47.80022" lon="-2.22228">
        <ele>37.9</ele>
        <time>2023-04-25T05:58:02.797Z</time>
      </trkpt>
      <trkpt lat="47.80156" lon="-2.22068">
        <ele>40.2</ele>
        <time>2023-04-25T06:00:58.505Z</time>
      </trkpt>
      <trkpt lat="47.80177" lon="-2.21848">
        <ele>39.1</ele>
        <time>2023-04-25T06:03:21.695Z</time>
      </trkpt>
      <trkpt lat="47.80208" lon="-2.2174">
        <ele>37.9</ele>
        <time>2023-04-25T06:04:35.597Z</time>
      </trkpt>
      <trkpt lat="47.80175" lon="-2.21714">
        <ele>40.5</ele>
        <time>2023-04-25T06:05:21.430Z</time>
      </trkpt>
      <trkpt lat="47.80146" lon="-2.2173">
        <ele>41.5</ele>
        <time>2023-04-25T06:05:55.022Z</time>
      </trkpt>
      <trkpt lat="47.80193" lon="-2.21233">
        <ele>43</ele>
        <time>2023-04-25T06:11:30.404Z</time>
      </trkpt>
      <trkpt lat="47.80051" lon="-2.211">
        <ele>49.2</ele>
        <time>2023-04-25T06:14:35.350Z</time>
      </trkpt>
      <trkpt lat="47.79939" lon="-2.21108">
        <ele>52.3</ele>
        <time>2023-04-25T06:16:35.328Z</time>
      </trkpt>
      <trkpt lat="47.79962" lon="-2.20757">
        <ele>45.2</ele>
        <time>2023-04-25T06:20:07.655Z</time>
      </trkpt>
      <trkpt lat="47.79835" lon="-2.20769">
        <ele>48.9</ele>
        <time>2023-04-25T06:22:24.440Z</time>
      </trkpt>
      <trkpt lat="47.79815" lon="-2.20465">
        <ele>59.3</ele>
        <time>2023-04-25T06:26:20.967Z</time>
      </trkpt>
      <trkpt lat="47.79852" lon="-2.20242">
        <ele>53.7</ele>
        <time>2023-04-25T06:28:36.705Z</time>
      </trkpt>
      <trkpt lat="47.79743" lon="-2.20233">
        <ele>59.3</ele>
        <time>2023-04-25T06:30:42.799Z</time>
      </trkpt>
      <trkpt lat="47.79653" lon="-2.2013">
        <ele>63.3</ele>
        <time>2023-04-25T06:32:47.256Z</time>
      </trkpt>
      <trkpt lat="47.79602" lon="-2.19997">
        <ele>58.4</ele>
        <time>2023-04-25T06:34:15.586Z</time>
      </trkpt>
      <trkpt lat="47.79524" lon="-2.19919">
        <ele>62.1</ele>
        <time>2023-04-25T06:35:59.987Z</time>
      </trkpt>
      <trkpt lat="47.7949" lon="-2.20023">
        <ele>63.4</ele>
        <time>2023-04-25T06:37:20.303Z</time>
      </trkpt>
      <trkpt lat="47.79422" lon="-2.19976">
        <ele>65.1</ele>
        <time>2023-04-25T06:38:39.268Z</time>
      </trkpt>
      <trkpt lat="47.79408" lon="-2.19804">
        <ele>66</ele>
        <time>2023-04-25T06:40:36.244Z</time>
      </trkpt>
      <trkpt lat="47.79368" lon="-2.19641">
        <ele>61.3</ele>
        <time>2023-04-25T06:42:17.596Z</time>
      </trkpt>
      <trkpt lat="47.79039" lon="-2.19538">
        <ele>42.7</ele>
        <time>2023-04-25T06:47:06.255Z</time>
      </trkpt>
      <trkpt lat="47.79008" lon="-2.19465">
        <ele>41</ele>
        <time>2023-04-25T06:47:58.362Z</time>
      </trkpt>
      <trkpt lat="47.78817" lon="-2.19349">
        <ele>38.2</ele>
        <time>2023-04-25T06:51:12.569Z</time>
      </trkpt>
      <trkpt lat="47.788" lon="-2.19405">
        <ele>37.9</ele>
        <time>2023-04-25T06:51:52.190Z</time>
      </trkpt>
      <trkpt lat="47.78627" lon="-2.19649">
        <ele>41.2</ele>
        <time>2023-04-25T06:55:56.335Z</time>
      </trkpt>
      <trkpt lat="47.78595" lon="-2.1986">
        <ele>43</ele>
        <time>2023-04-25T06:58:24.533Z</time>
      </trkpt>
      <trkpt lat="47.78246" lon="-2.19791">
        <ele>47.1</ele>
        <time>2023-04-25T07:04:22.702Z</time>
      </trkpt>
      <trkpt lat="47.77914" lon="-2.19911">
        <ele>67</ele>
        <time>2023-04-25T07:11:06.473Z</time>
      </trkpt>
      <trkpt lat="47.77714" lon="-2.20085">
        <ele>90.7</ele>
        <time>2023-04-25T07:16:24.559Z</time>
      </trkpt>
      <trkpt lat="47.77412" lon="-2.20209">
        <ele>100.9</ele>
        <time>2023-04-25T07:22:05.080Z</time>
      </trkpt>
      <trkpt lat="47.77494" lon="-2.20568">
        <ele>101.4</ele>
        <time>2023-04-25T07:26:16.640Z</time>
      </trkpt>
      <trkpt lat="47.76025" lon="-2.20563">
        <ele>79.5</ele>
        <time>2023-04-25T07:49:14.033Z</time>
      </trkpt>
      <trkpt lat="47.76056" lon="-2.20778">
        <ele>78.9</ele>
        <time>2023-04-25T07:51:37.283Z</time>
      </trkpt>
      <trkpt lat="47.75847" lon="-2.20771">
        <ele>78.6</ele>
        <time>2023-04-25T07:55:01.514Z</time>
      </trkpt>
      <trkpt lat="47.75714" lon="-2.20634">
        <ele>73.6</ele>
        <time>2023-04-25T07:57:26.110Z</time>
      </trkpt>
      <trkpt lat="47.75593" lon="-2.20592">
        <ele>64.4</ele>
        <time>2023-04-25T07:59:12.792Z</time>
      </trkpt>
      <trkpt lat="47.75548" lon="-2.20604">
        <ele>61</ele>
        <time>2023-04-25T07:59:52.045Z</time>
      </trkpt>
      <trkpt lat="47.75386" lon="-2.20629">
        <ele>57.5</ele>
        <time>2023-04-25T08:02:21.762Z</time>
      </trkpt>
      <trkpt lat="47.75383" lon="-2.2075">
        <ele>55.2</ele>
        <time>2023-04-25T08:03:35.098Z</time>
      </trkpt>
      <trkpt lat="47.75336" lon="-2.20798">
        <ele>53.7</ele>
        <time>2023-04-25T08:04:26.757Z</time>
      </trkpt>
      <trkpt lat="47.75344" lon="-2.20922">
        <ele>50.9</ele>
        <time>2023-04-25T08:05:41.057Z</time>
      </trkpt>
      <trkpt lat="47.75203" lon="-2.20945">
        <ele>49.1</ele>
        <time>2023-04-25T08:07:54.953Z</time>
      </trkpt>
      <trkpt lat="47.75186" lon="-2.2093">
        <ele>46.4</ele>
        <time>2023-04-25T08:08:11.924Z</time>
      </trkpt>
      <trkpt lat="47.75168" lon="-2.20953">
        <ele>46.4</ele>
        <time>2023-04-25T08:08:35.209Z</time>
      </trkpt>
      <trkpt lat="47.75163" lon="-2.21018">
        <ele>59.1</ele>
        <time>2023-04-25T08:10:39.636Z</time>
      </trkpt>
      <trkpt lat="47.7517" lon="-2.21032">
        <ele>61.4</ele>
        <time>2023-04-25T08:11:02.423Z</time>
      </trkpt>
      <trkpt lat="47.75161" lon="-2.21087">
        <ele>65.1</ele>
        <time>2023-04-25T08:11:53.760Z</time>
      </trkpt>
      <trkpt lat="47.75178" lon="-2.21133">
        <ele>65.5</ele>
        <time>2023-04-25T08:12:29.629Z</time>
      </trkpt>
      <trkpt lat="47.75176" lon="-2.21213">
        <ele>66.8</ele>
        <time>2023-04-25T08:13:26.585Z</time>
      </trkpt>
      <trkpt lat="47.75213" lon="-2.21239">
        <ele>67.3</ele>
        <time>2023-04-25T08:14:08.291Z</time>
      </trkpt>
      <trkpt lat="47.75241" lon="-2.21338">
        <ele>66.3</ele>
        <time>2023-04-25T08:15:16.216Z</time>
      </trkpt>
      <trkpt lat="47.75232" lon="-2.21383">
        <ele>66.4</ele>
        <time>2023-04-25T08:15:47.494Z</time>
      </trkpt>
      <trkpt lat="47.7518" lon="-2.21793">
        <ele>53.3</ele>
        <time>2023-04-25T08:19:48.349Z</time>
      </trkpt>
      <trkpt lat="47.75027" lon="-2.21752">
        <ele>39.9</ele>
        <time>2023-04-25T08:22:01.829Z</time>
      </trkpt>
      <trkpt lat="47.75107" lon="-2.21988">
        <ele>39.3</ele>
        <time>2023-04-25T08:24:54.402Z</time>
      </trkpt>
      <trkpt lat="47.75221" lon="-2.22078">
        <ele>43.3</ele>
        <time>2023-04-25T08:27:13.984Z</time>
      </trkpt>
      <trkpt lat="47.75354" lon="-2.22454">
        <ele>33.8</ele>
        <time>2023-04-25T08:31:27.529Z</time>
      </trkpt>
      <trkpt lat="47.75397" lon="-2.22482">
        <ele>34</ele>
        <time>2023-04-25T08:32:14.199Z</time>
      </trkpt>
      <trkpt lat="47.75396" lon="-2.22508">
        <ele>34.6</ele>
        <time>2023-04-25T08:32:33.334Z</time>
      </trkpt>
      <trkpt lat="47.75465" lon="-2.22795">
        <ele>56.4</ele>
        <time>2023-04-25T08:37:18.746Z</time>
      </trkpt>
      <trkpt lat="47.75578" lon="-2.23177">
        <ele>62.8</ele>
        <time>2023-04-25T08:42:14.390Z</time>
      </trkpt>
      <trkpt lat="47.75609" lon="-2.23168">
        <ele>63.1</ele>
        <time>2023-04-25T08:42:46.308Z</time>
      </trkpt>
      <trkpt lat="47.75618" lon="-2.23316">
        <ele>64</ele>
        <time>2023-04-25T08:44:27.112Z</time>
      </trkpt>
      <trkpt lat="47.75673" lon="-2.23398">
        <ele>63</ele>
        <time>2023-04-25T08:45:40.586Z</time>
      </trkpt>
      <trkpt lat="47.75687" lon="-2.2357">
        <ele>62.4</ele>
        <time>2023-04-25T08:47:33.086Z</time>
      </trkpt>
      <trkpt lat="47.75712" lon="-2.23651">
        <ele>63.2</ele>
        <time>2023-04-25T08:48:34.370Z</time>
      </trkpt>
      <trkpt lat="47.75689" lon="-2.23694">
        <ele>63.6</ele>
        <time>2023-04-25T08:49:11.856Z</time>
      </trkpt>
      <trkpt lat="47.75699" lon="-2.23823">
        <ele>60.1</ele>
        <time>2023-04-25T08:50:27.800Z</time>
      </trkpt>
      <trkpt lat="47.75774" lon="-2.23859">
        <ele>61</ele>
        <time>2023-04-25T08:51:47.918Z</time>
      </trkpt>
      <trkpt lat="47.75804" lon="-2.2411">
        <ele>58</ele>
        <time>2023-04-25T08:54:27.361Z</time>
      </trkpt>
      <trkpt lat="47.7585" lon="-2.24228">
        <ele>56</ele>
        <time>2023-04-25T08:55:51.574Z</time>
      </trkpt>
      <trkpt lat="47.75829" lon="-2.24235">
        <ele>55.2</ele>
        <time>2023-04-25T08:56:10.457Z</time>
      </trkpt>
      <trkpt lat="47.75858" lon="-2.24323">
        <ele>56.1</ele>
        <time>2023-04-25T08:57:17.907Z</time>
      </trkpt>
      <trkpt lat="47.75904" lon="-2.24621">
        <ele>54.6</ele>
        <time>2023-04-25T09:00:35.138Z</time>
      </trkpt>
      <trkpt lat="47.75927" lon="-2.24625">
        <ele>53.6</ele>
        <time>2023-04-25T09:00:55.102Z</time>
      </trkpt>
      <trkpt lat="47.75934" lon="-2.24677">
        <ele>52.5</ele>
        <time>2023-04-25T09:01:26.972Z</time>
      </trkpt>
      <trkpt lat="47.76025" lon="-2.24666">
        <ele>39.6</ele>
        <time>2023-04-25T09:02:45.362Z</time>
      </trkpt>
      <trkpt lat="47.7606" lon="-2.24739">
        <ele>31.1</ele>
        <time>2023-04-25T09:03:37.114Z</time>
      </trkpt>
      <trkpt lat="47.76086" lon="-2.24655">
        <ele>29.8</ele>
        <time>2023-04-25T09:04:34.359Z</time>
      </trkpt>
      <trkpt lat="47.76198" lon="-2.24434">
        <ele>35.5</ele>
        <time>2023-04-25T09:07:55.341Z</time>
      </trkpt>
      <trkpt lat="47.76445" lon="-2.24499">
        <ele>52.1</ele>
        <time>2023-04-25T09:12:59.711Z</time>
      </trkpt>
      <trkpt lat="47.76456" lon="-2.24834">
        <ele>30.9</ele>
        <time>2023-04-25T09:16:13.280Z</time>
      </trkpt>
      <trkpt lat="47.76499" lon="-2.249">
        <ele>29.9</ele>
        <time>2023-04-25T09:17:10.987Z</time>
      </trkpt>
      <trkpt lat="47.76543" lon="-2.24904">
        <ele>29.2</ele>
        <time>2023-04-25T09:17:52.199Z</time>
      </trkpt>
      <trkpt lat="47.7658" lon="-2.24898">
        <ele>29.1</ele>
        <time>2023-04-25T09:18:28.420Z</time>
      </trkpt>
      <trkpt lat="47.76586" lon="-2.24924">
        <ele>26.7</ele>
        <time>2023-04-25T09:18:44.285Z</time>
      </trkpt>
      <trkpt lat="47.76521" lon="-2.24977">
        <ele>25.9</ele>
        <time>2023-04-25T09:19:54.657Z</time>
      </trkpt>
      <trkpt lat="47.766" lon="-2.24967">
        <ele>28.3</ele>
        <time>2023-04-25T09:21:20.206Z</time>
      </trkpt>
      <trkpt lat="47.76711" lon="-2.24876">
        <ele>29.3</ele>
        <time>2023-04-25T09:23:27.640Z</time>
      </trkpt>
      <trkpt lat="47.76811" lon="-2.2496">
        <ele>31.4</ele>
        <time>2023-04-25T09:25:26.927Z</time>
      </trkpt>
      <trkpt lat="47.77007" lon="-2.25076">
        <ele>32.7</ele>
        <time>2023-04-25T09:28:57.891Z</time>
      </trkpt>
      <trkpt lat="47.77055" lon="-2.25222">
        <ele>35</ele>
        <time>2023-04-25T09:30:52.356Z</time>
      </trkpt>
      <trkpt lat="47.77189" lon="-2.25222">
        <ele>34.2</ele>
        <time>2023-04-25T09:33:01.459Z</time>
      </trkpt>
      <trkpt lat="47.77236" lon="-2.2531">
        <ele>35.2</ele>
        <time>2023-04-25T09:34:18.696Z</time>
      </trkpt>
      <trkpt lat="47.77335" lon="-2.25117">
        <ele>36</ele>
        <time>2023-04-25T09:37:01.253Z</time>
      </trkpt>
      <trkpt lat="47.7745" lon="-2.2525">
        <ele>39.2</ele>
        <time>2023-04-25T09:39:34.318Z</time>
      </trkpt>
      <trkpt lat="47.77663" lon="-2.25215">
        <ele>42.9</ele>
        <time>2023-04-25T09:43:16.201Z</time>
      </trkpt>
      <trkpt lat="47.77699" lon="-2.24791">
        <ele>60.9</ele>
        <time>2023-04-25T09:49:00.647Z</time>
      </trkpt>
      <trkpt lat="47.77584" lon="-2.2452">
        <ele>66.3</ele>
        <time>2023-04-25T09:52:49.233Z</time>
      </trkpt>
      <trkpt lat="47.78102" lon="-2.24175">
        <ele>98.7</ele>
        <time>2023-04-25T10:03:57.374Z</time>
      </trkpt>
      <trkpt lat="47.78195" lon="-2.24471">
        <ele>98.1</ele>
        <time>2023-04-25T10:07:31.025Z</time>
      </trkpt>
      <trkpt lat="47.78517" lon="-2.24434">
        <ele>93.2</ele>
        <time>2023-04-25T10:12:33.601Z</time>
      </trkpt>
      <trkpt lat="47.78585" lon="-2.24374">
        <ele>85.4</ele>
        <time>2023-04-25T10:13:41.475Z</time>
      </trkpt>
      <trkpt lat="47.78854" lon="-2.24422">
        <ele>64.5</ele>
        <time>2023-04-25T10:17:34.092Z</time>
      </trkpt>
      <trkpt lat="47.79633" lon="-2.24173">
        <ele>53.8</ele>
        <time>2023-04-25T10:30:04.512Z</time>
      </trkpt>
      <trkpt lat="47.80155" lon="-2.24336">
        <ele>62.6</ele>
        <time>2023-04-25T10:39:15.430Z</time>
      </trkpt>
      <trkpt lat="47.80407" lon="-2.2449">
        <ele>70</ele>
        <time>2023-04-25T10:44:06.457Z</time>
      </trkpt>
      <trkpt lat="47.80509" lon="-2.24507">
        <ele>69</ele>
        <time>2023-04-25T10:45:44.212Z</time>
      </trkpt>
      <trkpt lat="47.80529" lon="-2.23947">
        <ele>58</ele>
        <time>2023-04-25T10:51:22.575Z</time>
      </trkpt>
      <trkpt lat="47.80453" lon="-2.23776">
        <ele>58.7</ele>
        <time>2023-04-25T10:53:39.853Z</time>
      </trkpt>
      <trkpt lat="47.804" lon="-2.23743">
        <ele>60.6</ele>
        <time>2023-04-25T10:54:42.398Z</time>
      </trkpt>
      <trkpt lat="47.80535" lon="-2.2358">
        <ele>55.7</ele>
        <time>2023-04-25T10:57:19.011Z</time>
      </trkpt>
      <trkpt lat="47.8058" lon="-2.23394">
        <ele>53.3</ele>
        <time>2023-04-25T10:59:22.331Z</time>
      </trkpt>
      <trkpt lat="47.8057" lon="-2.2331">
        <ele>53.5</ele>
        <time>2023-04-25T11:00:19.163Z</time>
      </trkpt>
      <trkpt lat="47.8041" lon="-2.23261">
        <ele>57.7</ele>
        <time>2023-04-25T11:03:12.875Z</time>
      </trkpt>
      <trkpt lat="47.8034" lon="-2.23252">
        <ele>56.3</ele>
        <time>2023-04-25T11:04:17.766Z</time>
      </trkpt>
      <trkpt lat="47.80309" lon="-2.23098">
        <ele>53.7</ele>
        <time>2023-04-25T11:05:56.264Z</time>
      </trkpt>
      <trkpt lat="47.80391" lon="-2.23068">
        <ele>57</ele>
        <time>2023-04-25T11:07:29.991Z</time>
      </trkpt>
      <trkpt lat="47.80382" lon="-2.22939">
        <ele>54.8</ele>
        <time>2023-04-25T11:08:49.172Z</time>
      </trkpt>
      <trkpt lat="47.80401" lon="-2.22832">
        <ele>54</ele>
        <time>2023-04-25T11:09:59.755Z</time>
      </trkpt>
      <trkpt lat="47.80385" lon="-2.22776">
        <ele>53</ele>
        <time>2023-04-25T11:10:36.996Z</time>
      </trkpt>
      <trkpt lat="47.80454" lon="-2.22591">
        <ele>49.8</ele>
        <time>2023-04-25T11:12:47.249Z</time>
      </trkpt>
      <trkpt lat="47.80369" lon="-2.22548">
        <ele>51</ele>
        <time>2023-04-25T11:14:19.071Z</time>
      </trkpt>
      <trkpt lat="47.80286" lon="-2.22565">
        <ele>50</ele>
        <time>2023-04-25T11:15:38.338Z</time>
      </trkpt>
      <trkpt lat="47.80269" lon="-2.22578">
        <ele>49.7</ele>
        <time>2023-04-25T11:15:56.215Z</time>
      </trkpt>
      <trkpt lat="47.80267" lon="-2.22532">
        <ele>49.6</ele>
        <time>2023-04-25T11:16:26.296Z</time>
      </trkpt>
      <trkpt lat="47.80179" lon="-2.22547">
        <ele>46.8</ele>
        <time>2023-04-25T11:17:45.300Z</time>
      </trkpt>
      <trkpt lat="47.80168" lon="-2.22354">
        <ele>47.4</ele>
        <time>2023-04-25T11:19:54.796Z</time>
      </trkpt>
    </trkseg>
  </trk>
</gpx>